Erin Prairie, Wisconsin
Current Conditions -  °F | °C
As of 4:15 PM on Friday 24 Oct 2014 (Local Time) from KRNH Reporting Station
Overcast Overcast  
Wind Chill: 59°   Ceiling: 1700
Heat Index: 59°   Visibility: 7mi
Dew Point: 56°   Wind: 7mph
Humidity: 88%   Direction: 190°S
Pressure: 29.85"   Gusts: NA
Location:  44.9659°N, 92.3734°W
Report Text: KRNH 242115Z AUTO 19006KT 7SM SCT010 OVC017 15/13 A2985 RMK AO2 T01500131
Loading
Personal Weather Stations






























Interactive Weather Map
Tropical Storm Tracking
New forecast layout! Learn more

10-Day Weather Forecast

Advertisements
Track Severe Weather on mobile